sensor_id;sensor_type;location;lat;lon;timestamp;P1;durP1;ratioP1;P2;durP2;ratioP2
76582;SDS011;65462;52.148;7.940;2023-08-20T00:02:09;5.85;;;2.85;;
76582;SDS011;65462;52.148;7.940;2023-08-20T00:04:35;6.60;;;2.50;;
76582;SDS011;65462;52.148;7.940;2023-08-20T00:07:01;5.28;;;2.78;;
76582;SDS011;65462;52.148;7.940;2023-08-20T00:09:27;6.78;;;2.85;;
76582;SDS011;65462;52.148;7.940;2023-08-20T00:11:53;6.10;;;2.60;;
76582;SDS011;65462;52.148;7.940;2023-08-20T00:14:18;6.20;;;2.90;;
76582;SDS011;65462;52.148;7.940;2023-08-20T00:16:43;5.28;;;2.55;;
76582;SDS011;65462;52.148;7.940;2023-08-20T00:19:11;5.05;;;2.90;;
76582;SDS011;65462;52.148;7.940;2023-08-20T00:21:40;6.10;;;2.50;;
76582;SDS011;65462;52.148;7.940;2023-08-20T00:24:06;4.03;;;2.60;;
76582;SDS011;65462;52.148;7.940;2023-08-20T00:26:32;7.15;;;2.60;;
76582;SDS011;65462;52.148;7.940;2023-08-20T00:28:58;5.53;;;2.60;;
76582;SDS011;65462;52.148;7.940;2023-08-20T00:31:23;4.65;;;2.72;;
76582;SDS011;65462;52.148;7.940;2023-08-20T00:33:49;8.15;;;2.50;;
76582;SDS011;65462;52.148;7.940;2023-08-20T00:36:14;3.92;;;2.47;;
76582;SDS011;65462;52.148;7.940;2023-08-20T00:38:39;7.13;;;2.42;;
76582;SDS011;65462;52.148;7.940;2023-08-20T00:41:04;3.78;;;2.60;;
76582;SDS011;65462;52.148;7.940;2023-08-20T00:43:30;9.10;;;2.90;;
76582;SDS011;65462;52.148;7.940;2023-08-20T00:45:55;5.63;;;2.47;;
76582;SDS011;65462;52.148;7.940;2023-08-20T00:48:23;8.40;;;3.05;;
76582;SDS011;65462;52.148;7.940;2023-08-20T00:50:49;6.45;;;2.90;;
76582;SDS011;65462;52.148;7.940;2023-08-20T00:53:14;7.53;;;2.50;;
76582;SDS011;65462;52.148;7.940;2023-08-20T00:55:40;5.00;;;1.98;;
76582;SDS011;65462;52.148;7.940;2023-08-20T00:58:07;6.75;;;2.50;;
76582;SDS011;65462;52.148;7.940;2023-08-20T01:00:33;5.35;;;2.53;;
76582;SDS011;65462;52.148;7.940;2023-08-20T01:02:58;4.07;;;2.10;;
76582;SDS011;65462;52.148;7.940;2023-08-20T01:05:23;6.82;;;2.60;;
76582;SDS011;65462;52.148;7.940;2023-08-20T01:11:16;6.15;;;2.53;;
76582;SDS011;65462;52.148;7.940;2023-08-20T01:13:43;4.75;;;2.13;;
76582;SDS011;65462;52.148;7.940;2023-08-20T01:16:08;4.68;;;2.55;;
76582;SDS011;65462;52.148;7.940;2023-08-20T01:18:34;4.88;;;2.17;;
76582;SDS011;65462;52.148;7.940;2023-08-20T01:21:01;3.13;;;2.00;;
76582;SDS011;65462;52.148;7.940;2023-08-20T01:29:19;5.65;;;2.58;;
76582;SDS011;65462;52.148;7.940;2023-08-20T01:31:44;5.78;;;2.20;;
76582;SDS011;65462;52.148;7.940;2023-08-20T01:34:10;4.13;;;2.70;;
76582;SDS011;65462;52.148;7.940;2023-08-20T01:36:37;5.75;;;2.30;;
76582;SDS011;65462;52.148;7.940;2023-08-20T01:39:03;7.43;;;2.55;;
76582;SDS011;65462;52.148;7.940;2023-08-20T01:41:29;5.00;;;2.28;;
76582;SDS011;65462;52.148;7.940;2023-08-20T01:43:55;5.55;;;2.65;;
76582;SDS011;65462;52.148;7.940;2023-08-20T01:46:20;5.28;;;2.50;;
76582;SDS011;65462;52.148;7.940;2023-08-20T01:48:46;6.43;;;2.20;;
76582;SDS011;65462;52.148;7.940;2023-08-20T01:51:11;5.63;;;2.20;;
76582;SDS011;65462;52.148;7.940;2023-08-20T01:53:36;4.32;;;2.45;;
76582;SDS011;65462;52.148;7.940;2023-08-20T01:56:02;7.03;;;2.25;;
76582;SDS011;65462;52.148;7.940;2023-08-20T01:58:27;4.38;;;2.40;;
76582;SDS011;65462;52.148;7.940;2023-08-20T02:00:53;4.30;;;2.25;;
76582;SDS011;65462;52.148;7.940;2023-08-20T02:03:18;4.40;;;2.00;;
76582;SDS011;65462;52.148;7.940;2023-08-20T02:05:43;4.53;;;2.30;;
76582;SDS011;65462;52.148;7.940;2023-08-20T02:08:09;6.32;;;2.38;;
76582;SDS011;65462;52.148;7.940;2023-08-20T02:10:34;4.50;;;1.90;;
76582;SDS011;65462;52.148;7.940;2023-08-20T02:13:00;4.25;;;2.10;;
76582;SDS011;65462;52.148;7.940;2023-08-20T02:15:25;6.60;;;2.35;;
76582;SDS011;65462;52.148;7.940;2023-08-20T02:17:51;5.35;;;2.47;;
76582;SDS011;65462;52.148;7.940;2023-08-20T02:20:16;3.97;;;2.00;;
76582;SDS011;65462;52.148;7.940;2023-08-20T02:22:42;4.90;;;2.00;;
76582;SDS011;65462;52.148;7.940;2023-08-20T02:25:07;5.40;;;2.38;;
76582;SDS011;65462;52.148;7.940;2023-08-20T02:27:32;4.60;;;2.20;;
76582;SDS011;65462;52.148;7.940;2023-08-20T02:29:58;2.72;;;2.05;;
76582;SDS011;65462;52.148;7.940;2023-08-20T02:32:24;3.28;;;2.00;;
76582;SDS011;65462;52.148;7.940;2023-08-20T02:34:50;5.30;;;2.45;;
76582;SDS011;65462;52.148;7.940;2023-08-20T02:37:16;4.03;;;2.47;;
76582;SDS011;65462;52.148;7.940;2023-08-20T02:39:41;5.47;;;2.20;;
76582;SDS011;65462;52.148;7.940;2023-08-20T02:42:06;3.58;;;2.30;;
76582;SDS011;65462;52.148;7.940;2023-08-20T02:44:31;4.32;;;2.17;;
76582;SDS011;65462;52.148;7.940;2023-08-20T02:46:57;4.10;;;2.33;;
76582;SDS011;65462;52.148;7.940;2023-08-20T02:49:22;5.22;;;2.35;;
76582;SDS011;65462;52.148;7.940;2023-08-20T02:51:47;3.75;;;1.90;;
76582;SDS011;65462;52.148;7.940;2023-08-20T02:54:12;4.95;;;2.25;;
76582;SDS011;65462;52.148;7.940;2023-08-20T02:56:38;5.55;;;2.28;;
76582;SDS011;65462;52.148;7.940;2023-08-20T02:59:03;4.97;;;2.20;;
76582;SDS011;65462;52.148;7.940;2023-08-20T03:01:28;4.68;;;2.30;;
76582;SDS011;65462;52.148;7.940;2023-08-20T03:03:54;3.67;;;2.00;;
76582;SDS011;65462;52.148;7.940;2023-08-20T03:06:19;5.18;;;2.33;;
76582;SDS011;65462;52.148;7.940;2023-08-20T03:08:45;4.97;;;2.45;;
76582;SDS011;65462;52.148;7.940;2023-08-20T03:11:10;4.05;;;1.98;;
76582;SDS011;65462;52.148;7.940;2023-08-20T03:13:36;4.25;;;2.10;;
76582;SDS011;65462;52.148;7.940;2023-08-20T03:16:01;3.75;;;2.30;;
76582;SDS011;65462;52.148;7.940;2023-08-20T03:18:28;6.45;;;2.08;;
76582;SDS011;65462;52.148;7.940;2023-08-20T03:20:54;7.70;;;2.17;;
76582;SDS011;65462;52.148;7.940;2023-08-20T03:23:21;4.68;;;2.25;;
76582;SDS011;65462;52.148;7.940;2023-08-20T03:25:46;4.32;;;2.30;;
76582;SDS011;65462;52.148;7.940;2023-08-20T03:28:11;3.80;;;2.10;;
76582;SDS011;65462;52.148;7.940;2023-08-20T03:30:36;3.60;;;2.42;;
76582;SDS011;65462;52.148;7.940;2023-08-20T03:33:02;3.22;;;1.95;;
76582;SDS011;65462;52.148;7.940;2023-08-20T03:35:27;4.00;;;2.53;;
76582;SDS011;65462;52.148;7.940;2023-08-20T03:37:53;3.90;;;2.10;;
76582;SDS011;65462;52.148;7.940;2023-08-20T03:40:18;3.03;;;2.10;;
76582;SDS011;65462;52.148;7.940;2023-08-20T03:42:43;3.60;;;2.22;;
76582;SDS011;65462;52.148;7.940;2023-08-20T03:45:08;5.35;;;2.28;;
76582;SDS011;65462;52.148;7.940;2023-08-20T03:47:34;5.60;;;2.10;;
76582;SDS011;65462;52.148;7.940;2023-08-20T03:49:59;6.57;;;2.40;;
76582;SDS011;65462;52.148;7.940;2023-08-20T03:52:24;4.72;;;2.70;;
76582;SDS011;65462;52.148;7.940;2023-08-20T03:54:50;5.45;;;2.83;;
76582;SDS011;65462;52.148;7.940;2023-08-20T03:57:15;5.40;;;2.90;;
76582;SDS011;65462;52.148;7.940;2023-08-20T03:59:41;5.35;;;3.10;;
76582;SDS011;65462;52.148;7.940;2023-08-20T04:02:06;48.53;;;43.97;;
76582;SDS011;65462;52.148;7.940;2023-08-20T04:04:32;481.70;;;430.73;;
76582;SDS011;65462;52.148;7.940;2023-08-20T04:06:57;455.30;;;405.20;;
76582;SDS011;65462;52.148;7.940;2023-08-20T04:09:22;461.67;;;411.30;;
76582;SDS011;65462;52.148;7.940;2023-08-20T04:11:48;452.97;;;402.53;;
76582;SDS011;65462;52.148;7.940;2023-08-20T04:14:13;459.37;;;408.87;;
76582;SDS011;65462;52.148;7.940;2023-08-20T04:16:38;4.78;;;3.30;;
76582;SDS011;65462;52.148;7.940;2023-08-20T04:19:03;4.63;;;3.00;;
76582;SDS011;65462;52.148;7.940;2023-08-20T04:21:29;4.85;;;3.13;;
76582;SDS011;65462;52.148;7.940;2023-08-20T04:23:54;6.72;;;3.03;;
76582;SDS011;65462;52.148;7.940;2023-08-20T04:26:19;7.03;;;3.38;;
76582;SDS011;65462;52.148;7.940;2023-08-20T04:28:44;6.65;;;3.33;;
76582;SDS011;65462;52.148;7.940;2023-08-20T04:31:10;4.00;;;2.65;;
76582;SDS011;65462;52.148;7.940;2023-08-20T04:33:35;4.50;;;2.60;;
76582;SDS011;65462;52.148;7.940;2023-08-20T04:36:00;6.10;;;2.90;;
76582;SDS011;65462;52.148;7.940;2023-08-20T04:38:26;7.95;;;2.97;;
76582;SDS011;65462;52.148;7.940;2023-08-20T04:40:51;5.43;;;2.65;;
76582;SDS011;65462;52.148;7.940;2023-08-20T04:43:16;6.78;;;3.35;;
76582;SDS011;65462;52.148;7.940;2023-08-20T04:45:42;5.20;;;2.70;;
76582;SDS011;65462;52.148;7.940;2023-08-20T04:48:07;7.88;;;3.60;;
76582;SDS011;65462;52.148;7.940;2023-08-20T04:50:32;3.50;;;2.05;;
76582;SDS011;65462;52.148;7.940;2023-08-20T04:52:58;5.32;;;2.25;;
76582;SDS011;65462;52.148;7.940;2023-08-20T04:55:24;5.75;;;2.45;;
76582;SDS011;65462;52.148;7.940;2023-08-20T04:57:50;4.72;;;2.50;;
76582;SDS011;65462;52.148;7.940;2023-08-20T05:00:15;3.80;;;2.05;;
76582;SDS011;65462;52.148;7.940;2023-08-20T05:02:41;3.78;;;2.40;;
76582;SDS011;65462;52.148;7.940;2023-08-20T05:05:06;5.15;;;2.42;;
76582;SDS011;65462;52.148;7.940;2023-08-20T05:07:31;6.10;;;2.75;;
76582;SDS011;65462;52.148;7.940;2023-08-20T05:09:57;4.90;;;2.58;;
76582;SDS011;65462;52.148;7.940;2023-08-20T05:12:22;3.70;;;2.30;;
76582;SDS011;65462;52.148;7.940;2023-08-20T05:14:47;3.95;;;2.65;;
76582;SDS011;65462;52.148;7.940;2023-08-20T05:17:13;5.72;;;2.50;;
76582;SDS011;65462;52.148;7.940;2023-08-20T05:19:38;4.95;;;2.30;;
76582;SDS011;65462;52.148;7.940;2023-08-20T05:22:03;4.55;;;2.65;;
76582;SDS011;65462;52.148;7.940;2023-08-20T05:24:29;5.78;;;2.40;;
76582;SDS011;65462;52.148;7.940;2023-08-20T05:29:48;3.78;;;1.95;;
76582;SDS011;65462;52.148;7.940;2023-08-20T05:32:14;4.60;;;2.67;;
76582;SDS011;65462;52.148;7.940;2023-08-20T05:34:41;4.68;;;2.30;;
76582;SDS011;65462;52.148;7.940;2023-08-20T05:37:06;5.80;;;2.70;;
76582;SDS011;65462;52.148;7.940;2023-08-20T05:39:36;3.60;;;2.00;;
76582;SDS011;65462;52.148;7.940;2023-08-20T05:42:03;5.75;;;2.30;;
76582;SDS011;65462;52.148;7.940;2023-08-20T05:44:28;6.20;;;2.53;;
76582;SDS011;65462;52.148;7.940;2023-08-20T05:46:54;7.45;;;2.50;;
76582;SDS011;65462;52.148;7.940;2023-08-20T05:49:19;5.60;;;2.63;;
76582;SDS011;65462;52.148;7.940;2023-08-20T05:51:44;9.20;;;2.85;;
76582;SDS011;65462;52.148;7.940;2023-08-20T05:54:10;3.80;;;2.47;;
76582;SDS011;65462;52.148;7.940;2023-08-20T05:56:35;6.35;;;2.65;;
76582;SDS011;65462;52.148;7.940;2023-08-20T05:59:01;6.40;;;2.60;;
76582;SDS011;65462;52.148;7.940;2023-08-20T06:01:26;4.15;;;2.92;;
76582;SDS011;65462;52.148;7.940;2023-08-20T06:03:51;7.63;;;2.65;;
76582;SDS011;65462;52.148;7.940;2023-08-20T06:06:17;5.75;;;2.72;;
76582;SDS011;65462;52.148;7.940;2023-08-20T06:08:42;7.43;;;2.60;;
76582;SDS011;65462;52.148;7.940;2023-08-20T06:11:07;4.75;;;2.65;;
76582;SDS011;65462;52.148;7.940;2023-08-20T06:13:32;4.28;;;2.60;;
76582;SDS011;65462;52.148;7.940;2023-08-20T06:15:58;3.83;;;2.53;;
76582;SDS011;65462;52.148;7.940;2023-08-20T06:18:23;5.30;;;3.10;;
76582;SDS011;65462;52.148;7.940;2023-08-20T06:20:48;7.43;;;3.03;;
76582;SDS011;65462;52.148;7.940;2023-08-20T06:23:13;5.20;;;2.65;;
76582;SDS011;65462;52.148;7.940;2023-08-20T06:25:39;6.10;;;2.92;;
76582;SDS011;65462;52.148;7.940;2023-08-20T06:28:04;6.10;;;3.45;;
76582;SDS011;65462;52.148;7.940;2023-08-20T06:30:29;6.60;;;3.22;;
76582;SDS011;65462;52.148;7.940;2023-08-20T06:32:55;5.68;;;3.50;;
76582;SDS011;65462;52.148;7.940;2023-08-20T06:35:20;5.32;;;3.20;;
76582;SDS011;65462;52.148;7.940;2023-08-20T06:37:45;7.28;;;4.40;;
76582;SDS011;65462;52.148;7.940;2023-08-20T06:40:11;7.18;;;3.40;;
76582;SDS011;65462;52.148;7.940;2023-08-20T06:42:36;6.20;;;3.58;;
76582;SDS011;65462;52.148;7.940;2023-08-20T06:45:01;6.25;;;3.90;;
76582;SDS011;65462;52.148;7.940;2023-08-20T06:47:27;10.38;;;4.00;;
76582;SDS011;65462;52.148;7.940;2023-08-20T06:49:52;8.02;;;4.55;;
76582;SDS011;65462;52.148;7.940;2023-08-20T06:52:17;6.57;;;3.60;;
76582;SDS011;65462;52.148;7.940;2023-08-20T06:54:43;5.90;;;3.35;;
76582;SDS011;65462;52.148;7.940;2023-08-20T06:57:09;6.45;;;3.38;;
76582;SDS011;65462;52.148;7.940;2023-08-20T06:59:34;7.75;;;4.05;;
76582;SDS011;65462;52.148;7.940;2023-08-20T07:02:00;7.97;;;3.38;;
76582;SDS011;65462;52.148;7.940;2023-08-20T07:04:25;7.53;;;3.97;;
76582;SDS011;65462;52.148;7.940;2023-08-20T07:06:50;7.13;;;3.80;;
76582;SDS011;65462;52.148;7.940;2023-08-20T07:09:16;7.00;;;3.72;;
76582;SDS011;65462;52.148;7.940;2023-08-20T07:11:41;7.03;;;3.83;;
76582;SDS011;65462;52.148;7.940;2023-08-20T07:14:06;6.18;;;3.42;;
76582;SDS011;65462;52.148;7.940;2023-08-20T07:16:32;6.78;;;3.38;;
76582;SDS011;65462;52.148;7.940;2023-08-20T07:18:57;6.78;;;3.80;;
76582;SDS011;65462;52.148;7.940;2023-08-20T07:21:22;6.75;;;3.65;;
76582;SDS011;65462;52.148;7.940;2023-08-20T07:23:48;8.48;;;3.60;;
76582;SDS011;65462;52.148;7.940;2023-08-20T07:26:13;6.55;;;3.70;;
76582;SDS011;65462;52.148;7.940;2023-08-20T07:28:38;9.98;;;4.28;;
76582;SDS011;65462;52.148;7.940;2023-08-20T07:33:51;8.13;;;4.07;;
76582;SDS011;65462;52.148;7.940;2023-08-20T07:36:17;5.25;;;3.97;;
76582;SDS011;65462;52.148;7.940;2023-08-20T07:38:43;7.93;;;4.07;;
76582;SDS011;65462;52.148;7.940;2023-08-20T07:41:08;6.35;;;3.97;;
76582;SDS011;65462;52.148;7.940;2023-08-20T07:43:37;6.57;;;4.03;;
76582;SDS011;65462;52.148;7.940;2023-08-20T07:46:03;7.68;;;4.00;;
76582;SDS011;65462;52.148;7.940;2023-08-20T07:48:29;8.20;;;4.30;;
76582;SDS011;65462;52.148;7.940;2023-08-20T07:50:54;6.95;;;4.32;;
76582;SDS011;65462;52.148;7.940;2023-08-20T07:53:20;7.28;;;4.85;;
76582;SDS011;65462;52.148;7.940;2023-08-20T07:55:45;7.93;;;4.72;;
76582;SDS011;65462;52.148;7.940;2023-08-20T07:58:10;8.63;;;5.05;;
76582;SDS011;65462;52.148;7.940;2023-08-20T08:00:36;10.13;;;5.07;;
76582;SDS011;65462;52.148;7.940;2023-08-20T08:03:01;8.45;;;5.03;;
76582;SDS011;65462;52.148;7.940;2023-08-20T08:05:26;8.93;;;5.10;;
76582;SDS011;65462;52.148;7.940;2023-08-20T08:07:51;8.68;;;5.32;;
76582;SDS011;65462;52.148;7.940;2023-08-20T08:10:17;8.57;;;5.25;;
76582;SDS011;65462;52.148;7.940;2023-08-20T08:12:42;9.23;;;4.90;;
76582;SDS011;65462;52.148;7.940;2023-08-20T08:15:07;7.70;;;4.95;;
76582;SDS011;65462;52.148;7.940;2023-08-20T08:17:33;8.55;;;4.93;;
76582;SDS011;65462;52.148;7.940;2023-08-20T08:19:58;11.57;;;5.22;;
76582;SDS011;65462;52.148;7.940;2023-08-20T08:22:23;9.35;;;4.97;;
76582;SDS011;65462;52.148;7.940;2023-08-20T08:24:48;8.75;;;5.47;;
76582;SDS011;65462;52.148;7.940;2023-08-20T08:27:14;9.55;;;5.53;;
76582;SDS011;65462;52.148;7.940;2023-08-20T08:29:39;9.88;;;5.60;;
76582;SDS011;65462;52.148;7.940;2023-08-20T08:32:04;11.07;;;5.88;;
76582;SDS011;65462;52.148;7.940;2023-08-20T08:34:30;11.00;;;5.95;;
76582;SDS011;65462;52.148;7.940;2023-08-20T08:36:55;10.30;;;5.68;;
76582;SDS011;65462;52.148;7.940;2023-08-20T08:39:20;13.02;;;6.78;;
76582;SDS011;65462;52.148;7.940;2023-08-20T08:41:46;13.10;;;7.18;;
76582;SDS011;65462;52.148;7.940;2023-08-20T08:44:15;10.05;;;6.07;;
76582;SDS011;65462;52.148;7.940;2023-08-20T08:46:41;13.30;;;7.35;;
76582;SDS011;65462;52.148;7.940;2023-08-20T08:49:07;12.10;;;7.10;;
76582;SDS011;65462;52.148;7.940;2023-08-20T08:51:33;13.63;;;8.10;;
76582;SDS011;65462;52.148;7.940;2023-08-20T08:54:00;12.52;;;7.40;;
76582;SDS011;65462;52.148;7.940;2023-08-20T08:56:27;9.20;;;6.40;;
76582;SDS011;65462;52.148;7.940;2023-08-20T08:58:52;12.65;;;7.10;;
76582;SDS011;65462;52.148;7.940;2023-08-20T09:01:18;9.82;;;7.03;;
76582;SDS011;65462;52.148;7.940;2023-08-20T09:03:44;8.90;;;6.70;;
76582;SDS011;65462;52.148;7.940;2023-08-20T09:06:09;9.82;;;6.65;;
76582;SDS011;65462;52.148;7.940;2023-08-20T09:08:35;9.05;;;6.50;;
76582;SDS011;65462;52.148;7.940;2023-08-20T09:11:01;13.10;;;7.05;;
76582;SDS011;65462;52.148;7.940;2023-08-20T09:13:37;10.45;;;6.72;;
76582;SDS011;65462;52.148;7.940;2023-08-20T09:16:07;8.30;;;6.00;;
76582;SDS011;65462;52.148;7.940;2023-08-20T09:18:46;10.05;;;6.05;;
76582;SDS011;65462;52.148;7.940;2023-08-20T09:21:12;8.88;;;6.82;;
76582;SDS011;65462;52.148;7.940;2023-08-20T09:23:38;8.20;;;6.40;;
76582;SDS011;65462;52.148;7.940;2023-08-20T09:26:04;9.18;;;5.90;;
76582;SDS011;65462;52.148;7.940;2023-08-20T09:28:40;9.27;;;6.10;;
76582;SDS011;65462;52.148;7.940;2023-08-20T09:31:06;11.25;;;5.82;;
76582;SDS011;65462;52.148;7.940;2023-08-20T09:33:31;10.00;;;6.45;;
76582;SDS011;65462;52.148;7.940;2023-08-20T09:35:57;8.70;;;6.45;;
76582;SDS011;65462;52.148;7.940;2023-08-20T09:38:23;8.38;;;6.20;;
76582;SDS011;65462;52.148;7.940;2023-08-20T09:40:49;8.43;;;5.53;;
76582;SDS011;65462;52.148;7.940;2023-08-20T09:43:17;7.78;;;5.60;;
76582;SDS011;65462;52.148;7.940;2023-08-20T09:45:43;8.50;;;5.85;;
76582;SDS011;65462;52.148;7.940;2023-08-20T09:48:11;7.57;;;5.13;;
76582;SDS011;65462;52.148;7.940;2023-08-20T09:50:40;10.55;;;5.53;;
76582;SDS011;65462;52.148;7.940;2023-08-20T09:53:06;9.70;;;4.80;;
76582;SDS011;65462;52.148;7.940;2023-08-20T09:55:38;7.78;;;5.18;;
76582;SDS011;65462;52.148;7.940;2023-08-20T09:58:06;7.75;;;5.03;;
76582;SDS011;65462;52.148;7.940;2023-08-20T10:00:32;6.35;;;4.63;;
76582;SDS011;65462;52.148;7.940;2023-08-20T10:02:58;8.63;;;4.88;;
76582;SDS011;65462;52.148;7.940;2023-08-20T10:05:24;6.53;;;4.82;;
76582;SDS011;65462;52.148;7.940;2023-08-20T10:07:50;6.25;;;4.18;;
76582;SDS011;65462;52.148;7.940;2023-08-20T10:10:16;6.03;;;4.55;;
76582;SDS011;65462;52.148;7.940;2023-08-20T10:12:42;6.90;;;4.50;;
76582;SDS011;65462;52.148;7.940;2023-08-20T10:15:10;6.60;;;4.22;;
76582;SDS011;65462;52.148;7.940;2023-08-20T10:17:37;7.00;;;4.03;;
76582;SDS011;65462;52.148;7.940;2023-08-20T10:20:04;7.65;;;4.35;;
76582;SDS011;65462;52.148;7.940;2023-08-20T10:22:41;9.68;;;4.85;;
76582;SDS011;65462;52.148;7.940;2023-08-20T10:25:08;5.93;;;4.63;;
76582;SDS011;65462;52.148;7.940;2023-08-20T10:27:46;6.80;;;4.28;;
76582;SDS011;65462;52.148;7.940;2023-08-20T10:30:16;5.57;;;4.07;;
76582;SDS011;65462;52.148;7.940;2023-08-20T10:35:11;5.53;;;4.18;;
76582;SDS011;65462;52.148;7.940;2023-08-20T10:37:37;4.82;;;3.28;;
76582;SDS011;65462;52.148;7.940;2023-08-20T10:40:04;4.45;;;3.70;;
76582;SDS011;65462;52.148;7.940;2023-08-20T10:42:30;5.78;;;3.97;;
76582;SDS011;65462;52.148;7.940;2023-08-20T10:44:56;4.32;;;3.42;;
76582;SDS011;65462;52.148;7.940;2023-08-20T10:47:22;6.78;;;4.03;;
76582;SDS011;65462;52.148;7.940;2023-08-20T10:49:50;5.32;;;3.90;;
76582;SDS011;65462;52.148;7.940;2023-08-20T10:52:17;6.13;;;3.63;;
76582;SDS011;65462;52.148;7.940;2023-08-20T10:54:43;7.55;;;4.28;;
76582;SDS011;65462;52.148;7.940;2023-08-20T10:57:08;6.10;;;4.20;;
76582;SDS011;65462;52.148;7.940;2023-08-20T10:59:34;5.32;;;3.97;;
76582;SDS011;65462;52.148;7.940;2023-08-20T11:02:05;5.65;;;4.10;;
76582;SDS011;65462;52.148;7.940;2023-08-20T11:04:36;5.43;;;3.83;;
76582;SDS011;65462;52.148;7.940;2023-08-20T11:07:03;7.13;;;4.18;;
76582;SDS011;65462;52.148;7.940;2023-08-20T11:09:30;8.23;;;4.30;;
76582;SDS011;65462;52.148;7.940;2023-08-20T11:11:56;6.05;;;4.32;;
76582;SDS011;65462;52.148;7.940;2023-08-20T11:14:22;6.80;;;4.20;;
76582;SDS011;65462;52.148;7.940;2023-08-20T11:16:48;7.53;;;4.38;;
76582;SDS011;65462;52.148;7.940;2023-08-20T11:19:14;4.68;;;4.15;;
76582;SDS011;65462;52.148;7.940;2023-08-20T11:21:43;9.38;;;4.05;;
76582;SDS011;65462;52.148;7.940;2023-08-20T11:24:09;4.88;;;3.63;;
76582;SDS011;65462;52.148;7.940;2023-08-20T11:26:36;5.00;;;3.55;;
76582;SDS011;65462;52.148;7.940;2023-08-20T11:29:07;7.03;;;3.70;;
76582;SDS011;65462;52.148;7.940;2023-08-20T11:31:42;4.72;;;3.50;;
76582;SDS011;65462;52.148;7.940;2023-08-20T11:34:07;5.05;;;3.10;;
76582;SDS011;65462;52.148;7.940;2023-08-20T11:36:32;5.65;;;3.30;;
76582;SDS011;65462;52.148;7.940;2023-08-20T11:38:58;4.60;;;2.90;;
76582;SDS011;65462;52.148;7.940;2023-08-20T11:41:24;7.80;;;3.15;;
76582;SDS011;65462;52.148;7.940;2023-08-20T11:43:50;5.60;;;2.67;;
76582;SDS011;65462;52.148;7.940;2023-08-20T11:46:18;4.60;;;3.10;;
76582;SDS011;65462;52.148;7.940;2023-08-20T11:49:00;3.88;;;2.63;;
76582;SDS011;65462;52.148;7.940;2023-08-20T11:51:29;4.45;;;2.75;;
76582;SDS011;65462;52.148;7.940;2023-08-20T11:53:58;5.25;;;3.20;;
76582;SDS011;65462;52.148;7.940;2023-08-20T11:56:23;4.60;;;3.13;;
76582;SDS011;65462;52.148;7.940;2023-08-20T11:58:52;3.20;;;2.65;;
76582;SDS011;65462;52.148;7.940;2023-08-20T12:01:20;3.53;;;2.83;;
76582;SDS011;65462;52.148;7.940;2023-08-20T12:03:45;4.78;;;3.00;;
76582;SDS011;65462;52.148;7.940;2023-08-20T12:06:17;4.40;;;2.90;;
76582;SDS011;65462;52.148;7.940;2023-08-20T12:08:47;3.13;;;2.60;;
76582;SDS011;65462;52.148;7.940;2023-08-20T12:11:13;5.22;;;3.13;;
76582;SDS011;65462;52.148;7.940;2023-08-20T12:13:38;4.35;;;2.80;;
76582;SDS011;65462;52.148;7.940;2023-08-20T12:16:03;4.90;;;2.75;;
76582;SDS011;65462;52.148;7.940;2023-08-20T12:18:28;4.75;;;2.90;;
76582;SDS011;65462;52.148;7.940;2023-08-20T12:20:55;4.43;;;2.90;;
76582;SDS011;65462;52.148;7.940;2023-08-20T12:23:20;4.10;;;2.63;;
76582;SDS011;65462;52.148;7.940;2023-08-20T12:25:49;4.38;;;2.80;;
76582;SDS011;65462;52.148;7.940;2023-08-20T12:28:16;3.78;;;2.80;;
76582;SDS011;65462;52.148;7.940;2023-08-20T12:30:41;4.03;;;2.95;;
76582;SDS011;65462;52.148;7.940;2023-08-20T12:33:07;4.70;;;3.17;;
76582;SDS011;65462;52.148;7.940;2023-08-20T12:35:32;3.38;;;2.50;;
76582;SDS011;65462;52.148;7.940;2023-08-20T12:37:57;4.65;;;2.90;;
76582;SDS011;65462;52.148;7.940;2023-08-20T12:40:22;3.85;;;3.05;;
76582;SDS011;65462;52.148;7.940;2023-08-20T12:42:48;5.20;;;3.58;;
76582;SDS011;65462;52.148;7.940;2023-08-20T12:45:13;6.10;;;3.60;;
76582;SDS011;65462;52.148;7.940;2023-08-20T12:47:38;4.55;;;3.42;;
76582;SDS011;65462;52.148;7.940;2023-08-20T12:50:04;4.57;;;3.97;;
76582;SDS011;65462;52.148;7.940;2023-08-20T12:52:30;5.05;;;3.95;;
76582;SDS011;65462;52.148;7.940;2023-08-20T12:54:56;5.57;;;4.10;;
76582;SDS011;65462;52.148;7.940;2023-08-20T12:57:22;7.00;;;3.90;;
76582;SDS011;65462;52.148;7.940;2023-08-20T12:59:47;7.15;;;3.67;;
76582;SDS011;65462;52.148;7.940;2023-08-20T13:02:13;5.45;;;4.00;;
76582;SDS011;65462;52.148;7.940;2023-08-20T13:04:38;4.70;;;4.13;;
76582;SDS011;65462;52.148;7.940;2023-08-20T13:07:03;4.43;;;3.92;;
76582;SDS011;65462;52.148;7.940;2023-08-20T13:09:29;5.32;;;4.13;;
76582;SDS011;65462;52.148;7.940;2023-08-20T13:11:56;4.68;;;3.80;;
76582;SDS011;65462;52.148;7.940;2023-08-20T13:14:22;5.30;;;4.00;;
76582;SDS011;65462;52.148;7.940;2023-08-20T13:16:48;4.75;;;3.65;;
76582;SDS011;65462;52.148;7.940;2023-08-20T13:19:14;5.07;;;3.58;;
76582;SDS011;65462;52.148;7.940;2023-08-20T13:21:39;4.65;;;3.97;;
76582;SDS011;65462;52.148;7.940;2023-08-20T13:24:05;4.93;;;3.58;;
76582;SDS011;65462;52.148;7.940;2023-08-20T13:26:31;4.10;;;3.67;;
76582;SDS011;65462;52.148;7.940;2023-08-20T13:28:56;5.38;;;3.95;;
76582;SDS011;65462;52.148;7.940;2023-08-20T13:31:21;4.78;;;3.88;;
76582;SDS011;65462;52.148;7.940;2023-08-20T13:33:47;4.60;;;3.30;;
76582;SDS011;65462;52.148;7.940;2023-08-20T13:36:12;5.22;;;3.30;;
76582;SDS011;65462;52.148;7.940;2023-08-20T13:38:37;3.53;;;2.67;;
76582;SDS011;65462;52.148;7.940;2023-08-20T13:41:02;3.75;;;2.75;;
76582;SDS011;65462;52.148;7.940;2023-08-20T13:43:28;6.28;;;2.88;;
76582;SDS011;65462;52.148;7.940;2023-08-20T13:45:53;3.95;;;2.35;;
76582;SDS011;65462;52.148;7.940;2023-08-20T13:48:18;5.30;;;2.47;;
76582;SDS011;65462;52.148;7.940;2023-08-20T13:50:44;4.07;;;2.97;;
76582;SDS011;65462;52.148;7.940;2023-08-20T13:53:09;4.97;;;2.70;;
76582;SDS011;65462;52.148;7.940;2023-08-20T13:55:35;6.15;;;2.97;;
76582;SDS011;65462;52.148;7.940;2023-08-20T13:58:00;4.95;;;3.30;;
76582;SDS011;65462;52.148;7.940;2023-08-20T14:00:25;4.68;;;2.83;;
76582;SDS011;65462;52.148;7.940;2023-08-20T14:02:51;4.35;;;3.00;;
76582;SDS011;65462;52.148;7.940;2023-08-20T14:05:16;4.07;;;3.15;;
76582;SDS011;65462;52.148;7.940;2023-08-20T14:07:43;6.20;;;3.10;;
76582;SDS011;65462;52.148;7.940;2023-08-20T14:10:08;4.80;;;3.33;;
76582;SDS011;65462;52.148;7.940;2023-08-20T14:12:34;4.68;;;2.90;;
76582;SDS011;65462;52.148;7.940;2023-08-20T14:14:59;5.25;;;2.95;;
76582;SDS011;65462;52.148;7.940;2023-08-20T14:17:24;3.80;;;3.10;;
76582;SDS011;65462;52.148;7.940;2023-08-20T14:19:50;4.97;;;2.50;;
76582;SDS011;65462;52.148;7.940;2023-08-20T14:22:15;4.82;;;2.45;;
76582;SDS011;65462;52.148;7.940;2023-08-20T14:24:40;4.15;;;2.67;;
76582;SDS011;65462;52.148;7.940;2023-08-20T14:27:06;5.35;;;2.80;;
76582;SDS011;65462;52.148;7.940;2023-08-20T14:29:32;4.75;;;3.00;;
76582;SDS011;65462;52.148;7.940;2023-08-20T14:31:57;4.60;;;2.67;;
76582;SDS011;65462;52.148;7.940;2023-08-20T14:34:23;3.63;;;2.67;;
76582;SDS011;65462;52.148;7.940;2023-08-20T14:36:48;4.60;;;2.88;;
76582;SDS011;65462;52.148;7.940;2023-08-20T14:39:13;5.00;;;2.90;;
76582;SDS011;65462;52.148;7.940;2023-08-20T14:41:39;5.97;;;3.05;;
76582;SDS011;65462;52.148;7.940;2023-08-20T14:44:04;4.35;;;2.75;;
76582;SDS011;65462;52.148;7.940;2023-08-20T14:46:30;4.93;;;2.53;;
76582;SDS011;65462;52.148;7.940;2023-08-20T14:48:55;4.93;;;2.80;;
76582;SDS011;65462;52.148;7.940;2023-08-20T14:51:21;4.13;;;2.70;;
76582;SDS011;65462;52.148;7.940;2023-08-20T14:53:47;5.90;;;2.90;;
76582;SDS011;65462;52.148;7.940;2023-08-20T14:56:12;3.97;;;2.60;;